SBOSBO RTM / EHRD
Speedbird OnlineSpeedbird Online RTM / EHRD

Rotterdam The Hague Airport
01:25 12.5°C

Location Rotterdam, Netherlands
Latitude: 51.956902
Longitude: 4.43722
Local Time 01:25 on 26 May 2024
UTC +2 hours (Europe/Amsterdam)
Currency £1 equals EUR 1.17
METAR EHRD 252255Z AUTO 15004KT 9999 NSC 12/10 Q1016 NOSIG
TAF TAF EHRD 251711Z 2518/2624 22010KT 9999 SCT022 BECMG 2518/2521 24008KT BECMG 2603/2606 14010KT TEMPO 2608/2618 6000 SHRA SCT025CB PROB30 TEMPO 2611/2618 18017G27KT 4500 SHRA TSRA SCT020CB BECMG 2615/2618 24007KT
Weather As Of 26 May 2024 01:25
Description Few clouds
Wind 7 km/h from South-East (150°)
Cloud Cover 13%
Precipitation Rain: none, Snow: none
Sunrise 05:33
Sunset 21:45
NOTAM 13 active NOTAM
Rotations During the last 90 days there were
243 flights from LCY
233 flights to LCY
Lounges Prima Vista Lounge, International Terminal
Web Airport Website | Wikipedia
Codes IATA: RTM
ICAO: EHRD
Altitude -5 Meter / -15 Feet
Distance 301 KM / 187 Miles
from London.
Runways
RunwayLength (m)Surface
062200Asphalt
242200Asphalt
Radio
TypeDescriptionFrequency
APPRotterdam Approach122.99
ARRSchiphol Arrival118.405
ATISATIS128.565
DEPSchiphol Departure121.205
FISAmsterdam Information124.3
GND/CDLRotterdam Clearance Delivery122.18
TWRRotterdam Tower118.205
Live ATC



Support Speedbird Online

© 2017-2024 Speedbird Online